sensor_id;sensor_type;location;lat;lon;timestamp;P1;durP1;ratioP1;P2;durP2;ratioP2
568;SDS011;269;48.884;9.192;2023-04-04T00:01:25;3.38;;;1.80;;
568;SDS011;269;48.884;9.192;2023-04-04T00:03:52;2.85;;;1.90;;
568;SDS011;269;48.884;9.192;2023-04-04T00:06:20;2.45;;;1.73;;
568;SDS011;269;48.884;9.192;2023-04-04T00:08:48;2.17;;;1.83;;
568;SDS011;269;48.884;9.192;2023-04-04T00:11:15;2.90;;;1.60;;
568;SDS011;269;48.884;9.192;2023-04-04T00:13:42;2.92;;;1.77;;
568;SDS011;269;48.884;9.192;2023-04-04T00:16:09;3.35;;;2.03;;
568;SDS011;269;48.884;9.192;2023-04-04T00:18:37;3.03;;;1.92;;
568;SDS011;269;48.884;9.192;2023-04-04T00:21:04;1.70;;;1.60;;
568;SDS011;269;48.884;9.192;2023-04-04T00:23:31;2.15;;;1.95;;
568;SDS011;269;48.884;9.192;2023-04-04T00:26:00;3.63;;;2.20;;
568;SDS011;269;48.884;9.192;2023-04-04T00:28:26;1.90;;;1.80;;
568;SDS011;269;48.884;9.192;2023-04-04T00:30:54;2.05;;;1.90;;
568;SDS011;269;48.884;9.192;2023-04-04T00:33:21;1.98;;;1.70;;
568;SDS011;269;48.884;9.192;2023-04-04T00:35:48;2.10;;;1.48;;
568;SDS011;269;48.884;9.192;2023-04-04T00:38:15;2.60;;;2.28;;
568;SDS011;269;48.884;9.192;2023-04-04T00:40:42;3.55;;;1.92;;
568;SDS011;269;48.884;9.192;2023-04-04T00:43:14;2.53;;;2.33;;
568;SDS011;269;48.884;9.192;2023-04-04T00:45:41;2.28;;;2.08;;
568;SDS011;269;48.884;9.192;2023-04-04T00:48:09;4.80;;;2.60;;
568;SDS011;269;48.884;9.192;2023-04-04T00:50:36;2.58;;;2.38;;
568;SDS011;269;48.884;9.192;2023-04-04T00:53:03;2.47;;;1.90;;
568;SDS011;269;48.884;9.192;2023-04-04T00:55:30;2.53;;;2.00;;
568;SDS011;269;48.884;9.192;2023-04-04T00:57:58;3.38;;;1.80;;
568;SDS011;269;48.884;9.192;2023-04-04T01:00:27;2.47;;;2.28;;
568;SDS011;269;48.884;9.192;2023-04-04T01:02:54;3.38;;;2.17;;
568;SDS011;269;48.884;9.192;2023-04-04T01:05:22;5.28;;;2.55;;
568;SDS011;269;48.884;9.192;2023-04-04T01:07:49;2.95;;;2.20;;
568;SDS011;269;48.884;9.192;2023-04-04T01:10:16;2.83;;;2.20;;
568;SDS011;269;48.884;9.192;2023-04-04T01:12:43;2.95;;;2.33;;
568;SDS011;269;48.884;9.192;2023-04-04T01:15:11;2.13;;;1.95;;
568;SDS011;269;48.884;9.192;2023-04-04T01:17:39;2.75;;;2.30;;
568;SDS011;269;48.884;9.192;2023-04-04T01:20:10;2.15;;;1.83;;
568;SDS011;269;48.884;9.192;2023-04-04T01:22:39;4.40;;;2.30;;
568;SDS011;269;48.884;9.192;2023-04-04T01:25:07;3.03;;;2.03;;
568;SDS011;269;48.884;9.192;2023-04-04T01:27:37;2.70;;;2.30;;
568;SDS011;269;48.884;9.192;2023-04-04T01:30:04;2.42;;;2.22;;
568;SDS011;269;48.884;9.192;2023-04-04T01:32:35;3.22;;;2.28;;
568;SDS011;269;48.884;9.192;2023-04-04T01:35:10;1.90;;;1.70;;
568;SDS011;269;48.884;9.192;2023-04-04T01:37:47;2.45;;;1.90;;
568;SDS011;269;48.884;9.192;2023-04-04T01:40:21;2.22;;;1.92;;
568;SDS011;269;48.884;9.192;2023-04-04T01:42:53;4.38;;;2.60;;
568;SDS011;269;48.884;9.192;2023-04-04T01:45:22;2.65;;;1.88;;
568;SDS011;269;48.884;9.192;2023-04-04T01:47:49;2.45;;;1.80;;
568;SDS011;269;48.884;9.192;2023-04-04T01:50:16;2.70;;;2.03;;
568;SDS011;269;48.884;9.192;2023-04-04T01:52:43;3.55;;;1.80;;
568;SDS011;269;48.884;9.192;2023-04-04T01:55:11;2.70;;;2.00;;
568;SDS011;269;48.884;9.192;2023-04-04T01:57:39;2.45;;;1.60;;
568;SDS011;269;48.884;9.192;2023-04-04T02:00:09;2.50;;;2.10;;
568;SDS011;269;48.884;9.192;2023-04-04T02:02:36;2.33;;;1.98;;
568;SDS011;269;48.884;9.192;2023-04-04T02:05:03;1.83;;;1.70;;
568;SDS011;269;48.884;9.192;2023-04-04T02:07:31;1.95;;;1.70;;
568;SDS011;269;48.884;9.192;2023-04-04T02:09:58;2.42;;;1.95;;
568;SDS011;269;48.884;9.192;2023-04-04T02:12:25;2.80;;;1.80;;
568;SDS011;269;48.884;9.192;2023-04-04T02:14:52;2.10;;;1.90;;
568;SDS011;269;48.884;9.192;2023-04-04T02:17:21;2.03;;;1.67;;
568;SDS011;269;48.884;9.192;2023-04-04T02:19:49;2.67;;;1.95;;
568;SDS011;269;48.884;9.192;2023-04-04T02:22:17;2.00;;;1.90;;
568;SDS011;269;48.884;9.192;2023-04-04T02:24:44;3.45;;;2.55;;
568;SDS011;269;48.884;9.192;2023-04-04T02:27:11;3.22;;;2.10;;
568;SDS011;269;48.884;9.192;2023-04-04T02:29:38;2.40;;;2.20;;
568;SDS011;269;48.884;9.192;2023-04-04T02:32:05;1.90;;;1.75;;
568;SDS011;269;48.884;9.192;2023-04-04T02:34:33;2.75;;;2.03;;
568;SDS011;269;48.884;9.192;2023-04-04T02:37:01;3.35;;;2.20;;
568;SDS011;269;48.884;9.192;2023-04-04T02:39:28;2.88;;;2.25;;
568;SDS011;269;48.884;9.192;2023-04-04T02:41:55;1.80;;;1.70;;
568;SDS011;269;48.884;9.192;2023-04-04T02:44:23;2.78;;;1.88;;
568;SDS011;269;48.884;9.192;2023-04-04T02:46:50;2.22;;;2.05;;
568;SDS011;269;48.884;9.192;2023-04-04T02:49:16;4.45;;;2.20;;
568;SDS011;269;48.884;9.192;2023-04-04T02:51:45;3.50;;;1.98;;
568;SDS011;269;48.884;9.192;2023-04-04T02:54:13;2.20;;;2.00;;
568;SDS011;269;48.884;9.192;2023-04-04T02:56:40;2.10;;;1.70;;
568;SDS011;269;48.884;9.192;2023-04-04T02:59:07;4.93;;;1.98;;
568;SDS011;269;48.884;9.192;2023-04-04T03:01:34;2.38;;;2.20;;
568;SDS011;269;48.884;9.192;2023-04-04T03:04:01;2.70;;;2.00;;
568;SDS011;269;48.884;9.192;2023-04-04T03:06:30;2.85;;;2.20;;
568;SDS011;269;48.884;9.192;2023-04-04T03:08:59;2.22;;;2.00;;
568;SDS011;269;48.884;9.192;2023-04-04T03:11:29;3.15;;;2.50;;
568;SDS011;269;48.884;9.192;2023-04-04T03:13:56;3.88;;;2.17;;
568;SDS011;269;48.884;9.192;2023-04-04T03:16:23;3.13;;;2.40;;
568;SDS011;269;48.884;9.192;2023-04-04T03:18:51;2.17;;;1.98;;
568;SDS011;269;48.884;9.192;2023-04-04T03:21:18;3.45;;;2.22;;
568;SDS011;269;48.884;9.192;2023-04-04T03:23:45;2.90;;;2.13;;
568;SDS011;269;48.884;9.192;2023-04-04T03:26:13;4.75;;;2.10;;
568;SDS011;269;48.884;9.192;2023-04-04T03:28:40;2.22;;;2.13;;
568;SDS011;269;48.884;9.192;2023-04-04T03:31:07;2.80;;;2.10;;
568;SDS011;269;48.884;9.192;2023-04-04T03:33:35;4.05;;;2.13;;
568;SDS011;269;48.884;9.192;2023-04-04T03:36:02;2.40;;;2.20;;
568;SDS011;269;48.884;9.192;2023-04-04T03:38:35;3.13;;;2.60;;
568;SDS011;269;48.884;9.192;2023-04-04T03:41:02;2.22;;;2.03;;
568;SDS011;269;48.884;9.192;2023-04-04T03:43:31;2.50;;;1.92;;
568;SDS011;269;48.884;9.192;2023-04-04T03:45:58;3.60;;;2.30;;
568;SDS011;269;48.884;9.192;2023-04-04T03:48:27;3.75;;;2.17;;
568;SDS011;269;48.884;9.192;2023-04-04T03:50:54;2.75;;;2.33;;
568;SDS011;269;48.884;9.192;2023-04-04T03:53:22;2.75;;;2.45;;
568;SDS011;269;48.884;9.192;2023-04-04T03:55:49;3.53;;;2.65;;
568;SDS011;269;48.884;9.192;2023-04-04T03:58:17;4.30;;;2.53;;
568;SDS011;269;48.884;9.192;2023-04-04T04:00:46;4.75;;;2.60;;
568;SDS011;269;48.884;9.192;2023-04-04T04:03:13;2.47;;;2.25;;
568;SDS011;269;48.884;9.192;2023-04-04T04:05:40;3.65;;;2.50;;
568;SDS011;269;48.884;9.192;2023-04-04T04:08:07;3.47;;;2.92;;
568;SDS011;269;48.884;9.192;2023-04-04T04:10:34;2.58;;;2.38;;
568;SDS011;269;48.884;9.192;2023-04-04T04:13:01;2.75;;;2.55;;
568;SDS011;269;48.884;9.192;2023-04-04T04:15:28;3.35;;;2.90;;
568;SDS011;269;48.884;9.192;2023-04-04T04:17:57;2.90;;;2.60;;
568;SDS011;269;48.884;9.192;2023-04-04T04:20:23;2.65;;;2.45;;
568;SDS011;269;48.884;9.192;2023-04-04T04:22:51;2.83;;;2.60;;
568;SDS011;269;48.884;9.192;2023-04-04T04:25:17;5.50;;;2.90;;
568;SDS011;269;48.884;9.192;2023-04-04T04:27:44;4.25;;;2.70;;
568;SDS011;269;48.884;9.192;2023-04-04T04:30:12;2.90;;;2.60;;
568;SDS011;269;48.884;9.192;2023-04-04T04:32:39;4.72;;;2.60;;
568;SDS011;269;48.884;9.192;2023-04-04T04:35:08;3.17;;;2.95;;
568;SDS011;269;48.884;9.192;2023-04-04T04:37:35;3.67;;;3.05;;
568;SDS011;269;48.884;9.192;2023-04-04T04:40:02;2.90;;;2.70;;
568;SDS011;269;48.884;9.192;2023-04-04T04:42:30;3.15;;;2.72;;
568;SDS011;269;48.884;9.192;2023-04-04T04:44:58;3.90;;;3.53;;
568;SDS011;269;48.884;9.192;2023-04-04T04:47:24;2.95;;;2.65;;
568;SDS011;269;48.884;9.192;2023-04-04T04:49:51;3.20;;;2.90;;
568;SDS011;269;48.884;9.192;2023-04-04T04:52:20;4.25;;;2.90;;
568;SDS011;269;48.884;9.192;2023-04-04T04:54:47;4.65;;;3.28;;
568;SDS011;269;48.884;9.192;2023-04-04T04:57:15;3.30;;;3.00;;
568;SDS011;269;48.884;9.192;2023-04-04T04:59:42;2.70;;;2.50;;
568;SDS011;269;48.884;9.192;2023-04-04T05:02:09;3.22;;;3.03;;
568;SDS011;269;48.884;9.192;2023-04-04T05:04:36;3.65;;;2.80;;
568;SDS011;269;48.884;9.192;2023-04-04T05:07:05;3.55;;;3.25;;
568;SDS011;269;48.884;9.192;2023-04-04T05:09:34;3.45;;;3.15;;
568;SDS011;269;48.884;9.192;2023-04-04T05:12:03;4.57;;;3.60;;
568;SDS011;269;48.884;9.192;2023-04-04T05:14:30;3.60;;;3.30;;
568;SDS011;269;48.884;9.192;2023-04-04T05:16:57;3.60;;;3.30;;
568;SDS011;269;48.884;9.192;2023-04-04T05:19:24;3.25;;;3.00;;
568;SDS011;269;48.884;9.192;2023-04-04T05:21:52;5.57;;;3.30;;
568;SDS011;269;48.884;9.192;2023-04-04T05:24:19;3.28;;;2.97;;
568;SDS011;269;48.884;9.192;2023-04-04T05:26:48;3.30;;;3.10;;
568;SDS011;269;48.884;9.192;2023-04-04T05:29:15;3.83;;;3.53;;
568;SDS011;269;48.884;9.192;2023-04-04T05:31:42;3.22;;;2.92;;
568;SDS011;269;48.884;9.192;2023-04-04T05:34:09;3.83;;;3.42;;
568;SDS011;269;48.884;9.192;2023-04-04T05:36:37;4.10;;;3.20;;
568;SDS011;269;48.884;9.192;2023-04-04T05:39:03;3.53;;;3.22;;
568;SDS011;269;48.884;9.192;2023-04-04T05:41:31;2.88;;;2.63;;
568;SDS011;269;48.884;9.192;2023-04-04T05:43:59;4.30;;;3.05;;
568;SDS011;269;48.884;9.192;2023-04-04T05:46:27;3.60;;;3.30;;
568;SDS011;269;48.884;9.192;2023-04-04T05:48:54;3.85;;;3.25;;
568;SDS011;269;48.884;9.192;2023-04-04T05:51:21;4.35;;;3.30;;
568;SDS011;269;48.884;9.192;2023-04-04T05:53:48;4.22;;;3.30;;
568;SDS011;269;48.884;9.192;2023-04-04T05:56:15;4.50;;;3.40;;
568;SDS011;269;48.884;9.192;2023-04-04T05:58:43;3.63;;;3.33;;
568;SDS011;269;48.884;9.192;2023-04-04T06:01:12;3.55;;;3.25;;
568;SDS011;269;48.884;9.192;2023-04-04T06:03:39;3.45;;;3.15;;
568;SDS011;269;48.884;9.192;2023-04-04T06:06:07;3.70;;;3.30;;
568;SDS011;269;48.884;9.192;2023-04-04T06:08:34;4.30;;;3.28;;
568;SDS011;269;48.884;9.192;2023-04-04T06:11:01;4.70;;;3.00;;
568;SDS011;269;48.884;9.192;2023-04-04T06:13:28;3.88;;;3.55;;
568;SDS011;269;48.884;9.192;2023-04-04T06:15:55;4.18;;;3.53;;
568;SDS011;269;48.884;9.192;2023-04-04T06:18:23;5.45;;;3.60;;
568;SDS011;269;48.884;9.192;2023-04-04T06:20:51;5.25;;;3.75;;
568;SDS011;269;48.884;9.192;2023-04-04T06:23:17;3.58;;;3.28;;
568;SDS011;269;48.884;9.192;2023-04-04T06:25:45;4.95;;;3.95;;
568;SDS011;269;48.884;9.192;2023-04-04T06:28:13;3.53;;;3.10;;
568;SDS011;269;48.884;9.192;2023-04-04T06:30:42;4.68;;;3.35;;
568;SDS011;269;48.884;9.192;2023-04-04T06:33:09;4.32;;;3.13;;
568;SDS011;269;48.884;9.192;2023-04-04T06:35:37;4.20;;;2.95;;
568;SDS011;269;48.884;9.192;2023-04-04T06:38:04;3.17;;;2.88;;
568;SDS011;269;48.884;9.192;2023-04-04T06:40:31;4.57;;;3.13;;
568;SDS011;269;48.884;9.192;2023-04-04T06:42:59;3.65;;;3.17;;
568;SDS011;269;48.884;9.192;2023-04-04T06:45:26;3.38;;;3.08;;
568;SDS011;269;48.884;9.192;2023-04-04T06:47:53;3.28;;;2.97;;
568;SDS011;269;48.884;9.192;2023-04-04T06:50:21;3.17;;;2.92;;
568;SDS011;269;48.884;9.192;2023-04-04T06:52:49;3.22;;;2.92;;
568;SDS011;269;48.884;9.192;2023-04-04T06:55:17;3.92;;;2.80;;
568;SDS011;269;48.884;9.192;2023-04-04T06:57:44;2.90;;;2.55;;
568;SDS011;269;48.884;9.192;2023-04-04T07:00:12;3.88;;;2.67;;
568;SDS011;269;48.884;9.192;2023-04-04T07:02:39;3.78;;;2.80;;
568;SDS011;269;48.884;9.192;2023-04-04T07:05:07;4.30;;;3.60;;
568;SDS011;269;48.884;9.192;2023-04-04T07:07:35;3.95;;;3.00;;
568;SDS011;269;48.884;9.192;2023-04-04T07:10:04;2.60;;;2.40;;
568;SDS011;269;48.884;9.192;2023-04-04T07:12:31;3.83;;;3.38;;
568;SDS011;269;48.884;9.192;2023-04-04T07:14:58;3.95;;;2.65;;
568;SDS011;269;48.884;9.192;2023-04-04T07:17:26;3.10;;;2.63;;
568;SDS011;269;48.884;9.192;2023-04-04T07:19:53;3.00;;;2.75;;
568;SDS011;269;48.884;9.192;2023-04-04T07:22:20;3.60;;;2.92;;
568;SDS011;269;48.884;9.192;2023-04-04T07:24:47;2.80;;;2.60;;
568;SDS011;269;48.884;9.192;2023-04-04T07:27:16;3.30;;;2.70;;
568;SDS011;269;48.884;9.192;2023-04-04T07:29:43;3.35;;;3.00;;
568;SDS011;269;48.884;9.192;2023-04-04T07:32:10;4.05;;;3.30;;
568;SDS011;269;48.884;9.192;2023-04-04T07:34:37;4.90;;;3.15;;
568;SDS011;269;48.884;9.192;2023-04-04T07:37:04;5.05;;;2.50;;
568;SDS011;269;48.884;9.192;2023-04-04T07:39:31;3.38;;;2.80;;
568;SDS011;269;48.884;9.192;2023-04-04T07:41:58;2.47;;;2.25;;
568;SDS011;269;48.884;9.192;2023-04-04T07:44:27;3.17;;;2.63;;
568;SDS011;269;48.884;9.192;2023-04-04T07:46:54;3.60;;;2.40;;
568;SDS011;269;48.884;9.192;2023-04-04T07:49:21;3.17;;;2.50;;
568;SDS011;269;48.884;9.192;2023-04-04T07:51:48;3.03;;;2.65;;
568;SDS011;269;48.884;9.192;2023-04-04T07:54:15;4.22;;;2.80;;
568;SDS011;269;48.884;9.192;2023-04-04T07:56:42;4.82;;;2.45;;
568;SDS011;269;48.884;9.192;2023-04-04T07:59:10;3.30;;;2.45;;
568;SDS011;269;48.884;9.192;2023-04-04T08:01:38;2.85;;;2.20;;
568;SDS011;269;48.884;9.192;2023-04-04T08:04:06;2.83;;;2.60;;
568;SDS011;269;48.884;9.192;2023-04-04T08:06:33;3.08;;;2.15;;
568;SDS011;269;48.884;9.192;2023-04-04T08:09:01;2.67;;;2.47;;
568;SDS011;269;48.884;9.192;2023-04-04T08:11:29;3.00;;;2.70;;
568;SDS011;269;48.884;9.192;2023-04-04T08:13:56;3.00;;;2.30;;
568;SDS011;269;48.884;9.192;2023-04-04T08:16:23;3.15;;;2.25;;
568;SDS011;269;48.884;9.192;2023-04-04T08:18:52;3.10;;;2.25;;
568;SDS011;269;48.884;9.192;2023-04-04T08:21:19;2.80;;;2.55;;
568;SDS011;269;48.884;9.192;2023-04-04T08:23:47;3.25;;;2.15;;
568;SDS011;269;48.884;9.192;2023-04-04T08:26:14;2.42;;;2.22;;
568;SDS011;269;48.884;9.192;2023-04-04T08:28:41;2.58;;;2.38;;
568;SDS011;269;48.884;9.192;2023-04-04T08:31:09;4.30;;;2.10;;
568;SDS011;269;48.884;9.192;2023-04-04T08:33:36;3.05;;;2.78;;
568;SDS011;269;48.884;9.192;2023-04-04T08:36:05;2.40;;;1.88;;
568;SDS011;269;48.884;9.192;2023-04-04T08:38:33;2.75;;;2.33;;
568;SDS011;269;48.884;9.192;2023-04-04T08:41:00;4.00;;;2.20;;
568;SDS011;269;48.884;9.192;2023-04-04T08:43:27;3.30;;;2.33;;
568;SDS011;269;48.884;9.192;2023-04-04T08:45:57;2.95;;;2.38;;
568;SDS011;269;48.884;9.192;2023-04-04T08:48:27;2.80;;;2.30;;
568;SDS011;269;48.884;9.192;2023-04-04T08:50:55;2.58;;;2.38;;
568;SDS011;269;48.884;9.192;2023-04-04T08:53:26;2.95;;;2.28;;
568;SDS011;269;48.884;9.192;2023-04-04T08:55:55;3.00;;;2.30;;
568;SDS011;269;48.884;9.192;2023-04-04T08:58:24;3.40;;;2.40;;
568;SDS011;269;48.884;9.192;2023-04-04T09:00:52;3.03;;;2.40;;
568;SDS011;269;48.884;9.192;2023-04-04T09:03:21;3.17;;;2.10;;
568;SDS011;269;48.884;9.192;2023-04-04T09:05:50;2.55;;;2.10;;
568;SDS011;269;48.884;9.192;2023-04-04T09:08:18;3.13;;;2.20;;
568;SDS011;269;48.884;9.192;2023-04-04T09:10:47;3.05;;;2.05;;
568;SDS011;269;48.884;9.192;2023-04-04T09:13:15;2.85;;;2.25;;
568;SDS011;269;48.884;9.192;2023-04-04T09:15:45;3.17;;;2.53;;
568;SDS011;269;48.884;9.192;2023-04-04T09:18:13;3.25;;;2.10;;
568;SDS011;269;48.884;9.192;2023-04-04T09:20:40;3.55;;;2.63;;
568;SDS011;269;48.884;9.192;2023-04-04T09:23:09;3.55;;;2.50;;
568;SDS011;269;48.884;9.192;2023-04-04T09:25:41;2.42;;;2.22;;
568;SDS011;269;48.884;9.192;2023-04-04T09:28:13;2.30;;;2.10;;
568;SDS011;269;48.884;9.192;2023-04-04T09:30:40;2.60;;;2.40;;
568;SDS011;269;48.884;9.192;2023-04-04T09:33:09;2.22;;;2.00;;
568;SDS011;269;48.884;9.192;2023-04-04T09:35:38;3.13;;;2.50;;
568;SDS011;269;48.884;9.192;2023-04-04T09:38:09;3.80;;;2.50;;
568;SDS011;269;48.884;9.192;2023-04-04T09:40:37;3.00;;;2.38;;
568;SDS011;269;48.884;9.192;2023-04-04T09:43:07;4.68;;;2.50;;
568;SDS011;269;48.884;9.192;2023-04-04T09:45:37;2.90;;;2.70;;
568;SDS011;269;48.884;9.192;2023-04-04T09:48:06;4.57;;;2.47;;
568;SDS011;269;48.884;9.192;2023-04-04T09:50:35;4.47;;;2.40;;
568;SDS011;269;48.884;9.192;2023-04-04T09:53:03;3.25;;;2.50;;
568;SDS011;269;48.884;9.192;2023-04-04T09:55:31;2.50;;;2.17;;
568;SDS011;269;48.884;9.192;2023-04-04T09:58:00;2.42;;;2.22;;
568;SDS011;269;48.884;9.192;2023-04-04T10:00:40;2.90;;;2.53;;
568;SDS011;269;48.884;9.192;2023-04-04T10:03:10;2.63;;;2.42;;
568;SDS011;269;48.884;9.192;2023-04-04T10:05:40;3.15;;;2.85;;
568;SDS011;269;48.884;9.192;2023-04-04T10:08:13;2.55;;;2.25;;
568;SDS011;269;48.884;9.192;2023-04-04T10:10:49;2.70;;;2.40;;
568;SDS011;269;48.884;9.192;2023-04-04T10:13:22;3.60;;;2.50;;
568;SDS011;269;48.884;9.192;2023-04-04T10:15:52;3.17;;;2.40;;
568;SDS011;269;48.884;9.192;2023-04-04T10:18:20;3.17;;;2.47;;
568;SDS011;269;48.884;9.192;2023-04-04T10:20:49;2.20;;;2.03;;
568;SDS011;269;48.884;9.192;2023-04-04T10:23:16;2.67;;;2.47;;
568;SDS011;269;48.884;9.192;2023-04-04T10:25:45;2.65;;;2.45;;
568;SDS011;269;48.884;9.192;2023-04-04T10:28:13;2.30;;;2.10;;
568;SDS011;269;48.884;9.192;2023-04-04T10:30:42;2.60;;;2.30;;
568;SDS011;269;48.884;9.192;2023-04-04T10:33:17;2.37;;;2.23;;
568;SDS011;269;48.884;9.192;2023-04-04T10:35:50;4.17;;;2.50;;
568;SDS011;269;48.884;9.192;2023-04-04T10:38:22;3.47;;;2.50;;
568;SDS011;269;48.884;9.192;2023-04-04T10:40:54;2.77;;;2.50;;
568;SDS011;269;48.884;9.192;2023-04-04T10:43:24;3.07;;;2.67;;
568;SDS011;269;48.884;9.192;2023-04-04T10:45:52;2.67;;;2.30;;
568;SDS011;269;48.884;9.192;2023-04-04T10:48:22;3.03;;;2.70;;
568;SDS011;269;48.884;9.192;2023-04-04T10:50:50;6.03;;;2.50;;
568;SDS011;269;48.884;9.192;2023-04-04T10:53:18;2.90;;;2.60;;
568;SDS011;269;48.884;9.192;2023-04-04T10:55:46;4.83;;;2.73;;
568;SDS011;269;48.884;9.192;2023-04-04T10:58:14;2.50;;;2.30;;
568;SDS011;269;48.884;9.192;2023-04-04T11:00:47;2.60;;;2.40;;
568;SDS011;269;48.884;9.192;2023-04-04T11:03:16;2.43;;;2.23;;
568;SDS011;269;48.884;9.192;2023-04-04T11:05:45;2.47;;;2.27;;
568;SDS011;269;48.884;9.192;2023-04-04T11:08:14;3.00;;;2.53;;
568;SDS011;269;48.884;9.192;2023-04-04T11:10:45;3.03;;;2.73;;
568;SDS011;269;48.884;9.192;2023-04-04T11:13:16;3.67;;;2.33;;
568;SDS011;269;48.884;9.192;2023-04-04T11:15:53;2.80;;;2.57;;
568;SDS011;269;48.884;9.192;2023-04-04T11:18:22;2.47;;;2.27;;
568;SDS011;269;48.884;9.192;2023-04-04T11:21:14;2.70;;;2.50;;
568;SDS011;269;48.884;9.192;2023-04-04T11:26:44;2.87;;;2.50;;
568;SDS011;269;48.884;9.192;2023-04-04T11:29:19;3.03;;;2.60;;
568;SDS011;269;48.884;9.192;2023-04-04T11:31:50;2.83;;;2.43;;
568;SDS011;269;48.884;9.192;2023-04-04T11:39:49;3.30;;;3.00;;
568;SDS011;269;48.884;9.192;2023-04-04T11:42:21;3.00;;;2.70;;
568;SDS011;269;48.884;9.192;2023-04-04T11:45:00;3.50;;;2.30;;
568;SDS011;269;48.884;9.192;2023-04-04T11:47:29;2.77;;;2.37;;
568;SDS011;269;48.884;9.192;2023-04-04T11:49:57;2.77;;;2.57;;
568;SDS011;269;48.884;9.192;2023-04-04T11:52:30;2.70;;;2.10;;
568;SDS011;269;48.884;9.192;2023-04-04T11:54:59;2.57;;;2.37;;
568;SDS011;269;48.884;9.192;2023-04-04T11:57:26;3.13;;;2.83;;
568;SDS011;269;48.884;9.192;2023-04-04T11:59:53;3.73;;;2.40;;
568;SDS011;269;48.884;9.192;2023-04-04T12:02:22;3.17;;;2.30;;
568;SDS011;269;48.884;9.192;2023-04-04T12:04:51;3.03;;;2.70;;
568;SDS011;269;48.884;9.192;2023-04-04T12:07:19;2.60;;;2.40;;
568;SDS011;269;48.884;9.192;2023-04-04T12:09:50;2.73;;;2.50;;
568;SDS011;269;48.884;9.192;2023-04-04T12:12:17;2.93;;;2.70;;
568;SDS011;269;48.884;9.192;2023-04-04T12:14:45;2.73;;;2.47;;
568;SDS011;269;48.884;9.192;2023-04-04T12:17:14;2.90;;;2.60;;
568;SDS011;269;48.884;9.192;2023-04-04T12:19:42;2.40;;;2.20;;
568;SDS011;269;48.884;9.192;2023-04-04T12:22:09;3.50;;;2.50;;
568;SDS011;269;48.884;9.192;2023-04-04T12:24:36;2.77;;;2.50;;
568;SDS011;269;48.884;9.192;2023-04-04T12:27:04;2.77;;;2.10;;
568;SDS011;269;48.884;9.192;2023-04-04T12:29:32;3.10;;;2.50;;
568;SDS011;269;48.884;9.192;2023-04-04T12:32:02;2.37;;;2.17;;
568;SDS011;269;48.884;9.192;2023-04-04T12:34:30;2.70;;;2.50;;
568;SDS011;269;48.884;9.192;2023-04-04T12:36:59;4.53;;;2.33;;
568;SDS011;269;48.884;9.192;2023-04-04T12:39:28;3.83;;;2.37;;
568;SDS011;269;48.884;9.192;2023-04-04T12:41:56;3.00;;;2.57;;
568;SDS011;269;48.884;9.192;2023-04-04T12:44:26;2.80;;;2.60;;
568;SDS011;269;48.884;9.192;2023-04-04T12:46:55;2.50;;;2.10;;
568;SDS011;269;48.884;9.192;2023-04-04T12:49:26;4.47;;;2.60;;
568;SDS011;269;48.884;9.192;2023-04-04T12:51:55;2.40;;;2.20;;
568;SDS011;269;48.884;9.192;2023-04-04T12:54:25;2.47;;;2.27;;
568;SDS011;269;48.884;9.192;2023-04-04T12:56:54;2.63;;;2.43;;
568;SDS011;269;48.884;9.192;2023-04-04T12:59:23;2.83;;;2.63;;
568;SDS011;269;48.884;9.192;2023-04-04T13:01:54;3.20;;;2.40;;
568;SDS011;269;48.884;9.192;2023-04-04T13:04:23;2.53;;;2.33;;
568;SDS011;269;48.884;9.192;2023-04-04T13:06:50;2.77;;;2.57;;
568;SDS011;269;48.884;9.192;2023-04-04T13:09:17;2.50;;;2.20;;
568;SDS011;269;48.884;9.192;2023-04-04T13:11:55;3.60;;;3.00;;
568;SDS011;269;48.884;9.192;2023-04-04T13:14:24;3.10;;;2.47;;
568;SDS011;269;48.884;9.192;2023-04-04T13:17:02;3.10;;;2.77;;
568;SDS011;269;48.884;9.192;2023-04-04T13:19:32;2.70;;;2.50;;
568;SDS011;269;48.884;9.192;2023-04-04T13:22:00;2.50;;;2.30;;
568;SDS011;269;48.884;9.192;2023-04-04T13:24:27;2.90;;;2.60;;
568;SDS011;269;48.884;9.192;2023-04-04T13:26:54;3.10;;;2.90;;
568;SDS011;269;48.884;9.192;2023-04-04T13:29:22;3.00;;;2.70;;
568;SDS011;269;48.884;9.192;2023-04-04T13:31:49;3.07;;;2.77;;
568;SDS011;269;48.884;9.192;2023-04-04T13:34:20;2.83;;;2.63;;
568;SDS011;269;48.884;9.192;2023-04-04T13:36:48;2.73;;;2.53;;
568;SDS011;269;48.884;9.192;2023-04-04T13:39:15;3.23;;;2.93;;
568;SDS011;269;48.884;9.192;2023-04-04T13:41:42;3.00;;;2.80;;
568;SDS011;269;48.884;9.192;2023-04-04T13:44:11;3.10;;;2.80;;
568;SDS011;269;48.884;9.192;2023-04-04T13:46:38;3.73;;;3.40;;
568;SDS011;269;48.884;9.192;2023-04-04T13:49:06;3.10;;;2.80;;
568;SDS011;269;48.884;9.192;2023-04-04T13:51:36;3.10;;;2.60;;
568;SDS011;269;48.884;9.192;2023-04-04T13:54:03;3.00;;;2.50;;
568;SDS011;269;48.884;9.192;2023-04-04T13:56:30;3.10;;;2.60;;
568;SDS011;269;48.884;9.192;2023-04-04T13:58:58;3.33;;;2.83;;
568;SDS011;269;48.884;9.192;2023-04-04T14:01:25;2.60;;;2.40;;
568;SDS011;269;48.884;9.192;2023-04-04T14:03:52;2.97;;;2.40;;
568;SDS011;269;48.884;9.192;2023-04-04T14:06:19;4.77;;;3.20;;
568;SDS011;269;48.884;9.192;2023-04-04T14:08:47;4.33;;;3.23;;
568;SDS011;269;48.884;9.192;2023-04-04T14:11:14;2.77;;;2.50;;
568;SDS011;269;48.884;9.192;2023-04-04T14:13:41;2.90;;;2.70;;
568;SDS011;269;48.884;9.192;2023-04-04T14:16:08;3.20;;;2.97;;
568;SDS011;269;48.884;9.192;2023-04-04T14:18:36;3.77;;;2.67;;
568;SDS011;269;48.884;9.192;2023-04-04T14:21:03;2.80;;;2.60;;
568;SDS011;269;48.884;9.192;2023-04-04T14:23:31;2.90;;;2.70;;
568;SDS011;269;48.884;9.192;2023-04-04T14:25:59;3.07;;;2.80;;
568;SDS011;269;48.884;9.192;2023-04-04T14:28:27;2.77;;;2.57;;
568;SDS011;269;48.884;9.192;2023-04-04T14:30:54;3.00;;;2.80;;
568;SDS011;269;48.884;9.192;2023-04-04T14:33:21;3.30;;;2.73;;
568;SDS011;269;48.884;9.192;2023-04-04T14:35:48;3.10;;;2.80;;
568;SDS011;269;48.884;9.192;2023-04-04T14:38:16;4.00;;;2.80;;
568;SDS011;269;48.884;9.192;2023-04-04T14:40:43;3.97;;;3.20;;
568;SDS011;269;48.884;9.192;2023-04-04T14:43:11;2.77;;;2.57;;
568;SDS011;269;48.884;9.192;2023-04-04T14:45:38;3.53;;;2.80;;
568;SDS011;269;48.884;9.192;2023-04-04T14:48:05;2.63;;;2.43;;
568;SDS011;269;48.884;9.192;2023-04-04T14:50:33;3.37;;;3.00;;
568;SDS011;269;48.884;9.192;2023-04-04T14:53:02;2.90;;;2.70;;
568;SDS011;269;48.884;9.192;2023-04-04T14:55:29;3.60;;;2.60;;
568;SDS011;269;48.884;9.192;2023-04-04T14:57:57;3.13;;;2.83;;
568;SDS011;269;48.884;9.192;2023-04-04T15:00:25;2.90;;;2.70;;
568;SDS011;269;48.884;9.192;2023-04-04T15:02:52;2.87;;;2.67;;
568;SDS011;269;48.884;9.192;2023-04-04T15:05:20;3.37;;;3.07;;
568;SDS011;269;48.884;9.192;2023-04-04T15:07:48;3.20;;;2.90;;
568;SDS011;269;48.884;9.192;2023-04-04T15:10:15;4.10;;;3.60;;
568;SDS011;269;48.884;9.192;2023-04-04T15:12:42;3.47;;;3.27;;
568;SDS011;269;48.884;9.192;2023-04-04T15:15:10;3.67;;;3.37;;
568;SDS011;269;48.884;9.192;2023-04-04T15:17:39;3.20;;;2.90;;
568;SDS011;269;48.884;9.192;2023-04-04T15:20:07;2.90;;;2.60;;
568;SDS011;269;48.884;9.192;2023-04-04T15:22:35;4.40;;;3.07;;
568;SDS011;269;48.884;9.192;2023-04-04T15:25:04;4.10;;;3.80;;
568;SDS011;269;48.884;9.192;2023-04-04T15:27:32;4.53;;;3.63;;
568;SDS011;269;48.884;9.192;2023-04-04T15:29:59;3.37;;;3.07;;
568;SDS011;269;48.884;9.192;2023-04-04T15:32:27;3.50;;;3.20;;
568;SDS011;269;48.884;9.192;2023-04-04T15:34:55;3.70;;;3.40;;
568;SDS011;269;48.884;9.192;2023-04-04T15:37:22;3.60;;;3.30;;
568;SDS011;269;48.884;9.192;2023-04-04T15:39:50;2.77;;;2.57;;
568;SDS011;269;48.884;9.192;2023-04-04T15:42:17;3.23;;;2.93;;
568;SDS011;269;48.884;9.192;2023-04-04T15:44:44;2.77;;;2.57;;
568;SDS011;269;48.884;9.192;2023-04-04T15:47:11;2.70;;;2.50;;
568;SDS011;269;48.884;9.192;2023-04-04T15:49:38;3.40;;;3.07;;
568;SDS011;269;48.884;9.192;2023-04-04T15:52:07;2.97;;;2.77;;
568;SDS011;269;48.884;9.192;2023-04-04T15:54:34;3.83;;;3.03;;
568;SDS011;269;48.884;9.192;2023-04-04T15:57:01;2.87;;;2.57;;
568;SDS011;269;48.884;9.192;2023-04-04T15:59:28;3.10;;;2.90;;